Time;durP1;ratioP1;P1;durP2;ratioP2;P2;SDS_P1;SDS_P2;PMS_P1;PMS_P2;Temp;Humidity;BMP_temperature;BMP_pressure;BME280_temperature;BME280_humidity;BME280_pressure;Samples;Min_cycle;Max_cycle;Signal;HPM_P1;HPM_P2
2022/03/01 00:02:07;;;;;;;12.15;7.70;;;;;;;2.61;62.82;101866.22;5111754;28;20034;-70
2022/03/01 00:04:33;;;;;;;12.63;7.55;;;;;;;2.61;63.00;101858.28;5104131;28;20078;-70
2022/03/01 00:06:58;;;;;;;13.05;8.68;;;;;;;2.61;62.80;101865.38;5110843;28;20035;-71
2022/03/01 00:09:24;;;;;;;14.82;7.97;;;;;;;2.62;62.74;101860.03;5110674;28;20364;-70
2022/03/01 00:11:49;;;;;;;16.05;8.10;;;;;;;2.63;62.68;101860.88;5110763;28;20055;-70
2022/03/01 00:14:15;;;;;;;13.73;8.02;;;;;;;2.58;62.90;101854.88;5111291;28;20110;-78
2022/03/01 00:16:40;;;;;;;12.95;7.70;;;;;;;2.63;63.05;101859.13;5110683;28;20027;-70
2022/03/01 00:19:06;;;;;;;13.23;7.88;;;;;;;2.58;62.77;101854.88;5110711;28;20023;-70
2022/03/01 00:21:31;;;;;;;13.70;8.32;;;;;;;2.59;63.11;101857.50;5110271;28;20075;-70
2022/03/01 00:23:57;;;;;;;11.82;7.88;;;;;;;2.65;62.42;101853.78;5110353;28;20540;-70
2022/03/01 00:26:22;;;;;;;13.15;7.80;;;;;;;2.68;62.57;101859.84;5110696;28;20107;-70
2022/03/01 00:28:48;;;;;;;12.23;8.23;;;;;;;2.57;62.43;101850.50;5110346;28;20077;-70
2022/03/01 00:31:14;;;;;;;12.57;7.68;;;;;;;2.57;62.15;101851.38;5110183;28;20334;-70
2022/03/01 00:33:40;;;;;;;11.27;7.00;;;;;;;2.57;62.33;101842.56;5110542;28;20036;-70
2022/03/01 00:36:06;;;;;;;14.15;8.32;;;;;;;2.58;62.13;101846.94;5109386;28;20042;-70
2022/03/01 00:38:32;;;;;;;11.75;8.05;;;;;;;2.59;62.26;101846.91;5110241;28;20046;-70
2022/03/01 00:40:58;;;;;;;13.65;7.88;;;;;;;2.56;62.34;101843.47;5095462;28;20032;-71
2022/03/01 00:43:24;;;;;;;11.30;7.43;;;;;;;2.63;61.91;101852.94;5098076;28;20038;-70
2022/03/01 00:45:51;;;;;;;14.10;7.22;;;;;;;2.64;61.63;101838.81;5109981;28;20020;-70
2022/03/01 00:48:17;;;;;;;12.45;7.75;;;;;;;2.64;62.21;101844.09;5092482;28;20437;-70
2022/03/01 00:50:42;;;;;;;13.27;7.32;;;;;;;2.54;62.09;101840.84;5109842;28;20028;-70
2022/03/01 00:53:08;;;;;;;13.63;7.90;;;;;;;2.53;62.29;101846.19;5100791;28;20654;-70
2022/03/01 00:55:34;;;;;;;11.90;7.78;;;;;;;2.55;62.29;101845.25;5100477;28;20395;-70
2022/03/01 00:58:00;;;;;;;15.13;8.73;;;;;;;2.50;61.95;101839.22;5110426;28;20475;-77
2022/03/01 01:00:27;;;;;;;12.57;7.68;;;;;;;2.50;61.98;101841.00;5096126;28;20016;-78
2022/03/01 01:02:53;;;;;;;10.93;7.57;;;;;;;2.45;62.10;101835.84;5110909;28;20110;-77
2022/03/01 01:05:18;;;;;;;12.57;8.25;;;;;;;2.40;62.20;101835.13;5110657;28;20168;-78
2022/03/01 01:07:44;;;;;;;11.48;7.47;;;;;;;2.45;62.26;101850.88;5110678;27;20040;-78
2022/03/01 01:10:10;;;;;;;15.80;7.93;;;;;;;2.39;62.16;101844.84;5111056;28;20124;-77
2022/03/01 01:12:37;;;;;;;12.75;7.68;;;;;;;2.39;62.38;101838.69;5111543;27;20022;-78
2022/03/01 01:15:05;;;;;;;13.32;7.90;;;;;;;2.33;62.67;101839.72;5110447;28;20032;-77
2022/03/01 01:17:30;;;;;;;14.23;7.40;;;;;;;2.39;62.68;101844.00;5110753;28;20034;-78
2022/03/01 01:19:56;;;;;;;13.23;8.25;;;;;;;2.37;62.44;101856.41;5110747;28;20027;-77
2022/03/01 01:22:39;;;;;;;14.25;7.65;;;;;;;2.28;62.34;101841.66;5102344;28;20544;-78
2022/03/01 01:25:08;;;;;;;10.30;6.67;;;;;;;2.33;62.17;101865.34;5108714;28;20053;-77
2022/03/01 01:27:34;;;;;;;12.55;7.60;;;;;;;2.22;62.54;101841.84;5110195;28;20719;-78
2022/03/01 01:29:59;;;;;;;9.25;6.75;;;;;;;2.22;62.06;101848.91;5103854;28;20034;-77
2022/03/01 01:32:25;;;;;;;13.38;7.60;;;;;;;2.19;62.67;101848.97;5108019;28;20031;-70
2022/03/01 01:34:52;;;;;;;13.50;7.75;;;;;;;2.16;62.43;101847.31;5107132;28;20458;-70
2022/03/01 01:37:18;;;;;;;12.77;8.00;;;;;;;2.12;62.38;101852.72;5108479;28;20042;-71
2022/03/01 01:39:43;;;;;;;10.95;7.35;;;;;;;2.05;62.83;101837.94;5109115;28;20035;-71
2022/03/01 01:42:09;;;;;;;14.10;8.05;;;;;;;2.05;62.23;101835.28;5110367;28;20027;-71
2022/03/01 01:44:34;;;;;;;13.45;7.63;;;;;;;2.09;62.80;101850.16;5109671;28;20027;-71
2022/03/01 01:47:00;;;;;;;12.05;7.28;;;;;;;2.07;62.69;101857.31;5107789;28;20012;-71
2022/03/01 01:49:25;;;;;;;11.70;7.45;;;;;;;2.01;62.32;101846.88;5109627;28;20031;-71
2022/03/01 01:51:51;;;;;;;12.15;7.63;;;;;;;1.97;62.68;101838.16;5109469;28;20027;-71
2022/03/01 01:54:17;;;;;;;14.60;7.82;;;;;;;1.99;62.64;101849.56;5108955;28;20019;-71
2022/03/01 01:56:42;;;;;;;12.98;8.02;;;;;;;1.89;62.67;101831.34;5108821;28;20023;-71
2022/03/01 01:59:08;;;;;;;12.75;7.47;;;;;;;1.85;62.51;101832.34;5098113;28;20031;-71
2022/03/01 02:01:33;;;;;;;10.63;7.22;;;;;;;1.87;62.38;101841.13;5096640;28;20080;-71
2022/03/01 02:04:00;;;;;;;12.13;6.82;;;;;;;1.81;62.94;101836.84;5095163;28;20036;-71
2022/03/01 02:06:26;;;;;;;10.45;6.57;;;;;;;1.75;62.20;101833.53;5108677;28;20015;-72
2022/03/01 02:08:52;;;;;;;10.38;6.93;;;;;;;1.74;62.59;101830.00;5109365;28;20032;-78
2022/03/01 02:11:17;;;;;;;13.80;7.78;;;;;;;1.62;62.51;101809.19;5110285;28;20031;-78
2022/03/01 02:13:43;;;;;;;9.73;6.43;;;;;;;1.71;62.86;101829.25;5109981;28;20024;-78
2022/03/01 02:16:09;;;;;;;14.32;6.97;;;;;;;1.71;63.03;101829.25;5110561;28;20032;-79
2022/03/01 02:18:36;;;;;;;11.02;7.30;;;;;;;1.64;62.76;101833.81;5111267;28;20691;-76
2022/03/01 02:21:01;;;;;;;12.18;6.63;;;;;;;1.61;62.57;101820.69;5103451;28;20024;-75
2022/03/01 02:23:27;;;;;;;8.98;6.53;;;;;;;1.56;62.78;101824.34;5110251;28;20032;-76
2022/03/01 02:25:53;;;;;;;11.57;7.00;;;;;;;1.58;63.20;101830.47;5110440;28;20027;-76
2022/03/01 02:28:18;;;;;;;10.50;7.15;;;;;;;1.57;62.75;101841.94;5108881;28;20043;-76
2022/03/01 02:30:44;;;;;;;9.95;6.55;;;;;;;1.55;62.83;101826.13;5109439;28;20497;-78
2022/03/01 02:33:09;;;;;;;8.35;6.00;;;;;;;1.45;63.19;101822.00;5108202;28;20034;-77
2022/03/01 02:35:34;;;;;;;12.63;6.90;;;;;;;1.43;63.08;101815.91;5099861;28;20475;-77
2022/03/01 02:38:00;;;;;;;9.50;6.25;;;;;;;1.44;63.13;101822.91;5100228;28;20039;-79
2022/03/01 02:40:26;;;;;;;10.00;6.68;;;;;;;1.42;63.40;101822.06;5102383;28;20496;-78
2022/03/01 02:42:51;;;;;;;12.00;6.82;;;;;;;1.43;62.89;101825.59;5109063;28;20057;-79
2022/03/01 02:45:18;;;;;;;9.95;6.32;;;;;;;1.40;63.20;101825.69;5102273;28;20016;-79
2022/03/01 02:47:44;;;;;;;12.27;6.85;;;;;;;1.35;63.31;101825.78;5108246;28;20431;-78
2022/03/01 02:50:11;;;;;;;9.80;6.20;;;;;;;1.39;63.19;101835.38;5108004;28;20039;-79
2022/03/01 02:52:37;;;;;;;7.78;5.60;;;;;;;1.32;63.23;101828.50;5109497;28;20160;-79
2022/03/01 02:55:03;;;;;;;10.73;6.50;;;;;;;1.24;63.26;101817.28;5110657;28;20111;-79
2022/03/01 02:57:29;;;;;;;11.50;6.43;;;;;;;1.27;63.25;101827.78;5110430;28;20028;-78
2022/03/01 02:59:55;;;;;;;11.00;6.50;;;;;;;1.25;63.49;101826.94;5112625;28;20038;-79
2022/03/01 03:02:21;;;;;;;11.75;6.68;;;;;;;1.26;63.06;101830.47;5103837;28;20023;-78
2022/03/01 03:04:46;;;;;;;11.25;6.88;;;;;;;1.23;63.54;101827.91;5101299;28;20494;-78
2022/03/01 03:07:12;;;;;;;11.30;6.13;;;;;;;1.25;63.27;101839.28;5113427;28;20088;-75
2022/03/01 03:09:38;;;;;;;13.43;6.95;;;;;;;1.16;63.11;101836.91;5112802;28;20034;-76
2022/03/01 03:12:05;;;;;;;10.70;6.32;;;;;;;1.19;63.35;101848.22;5106408;28;20015;-76
2022/03/01 03:14:30;;;;;;;10.75;5.97;;;;;;;1.15;63.13;101840.41;5098400;28;20030;-77
2022/03/01 03:16:57;;;;;;;10.35;6.30;;;;;;;1.09;63.47;101841.44;5112760;28;20543;-77
2022/03/01 03:19:23;;;;;;;10.63;6.28;;;;;;;1.13;63.32;101845.75;5113358;28;20092;-76
2022/03/01 03:21:49;;;;;;;9.75;6.22;;;;;;;1.13;63.41;101851.03;5113151;28;20044;-77
2022/03/01 03:24:15;;;;;;;15.02;6.65;;;;;;;1.03;63.21;101838.94;5095846;28;20044;-77
2022/03/01 03:26:41;;;;;;;9.23;5.80;;;;;;;1.07;63.10;101851.19;5113693;28;20008;-77
2022/03/01 03:29:08;;;;;;;10.27;6.32;;;;;;;1.03;63.45;101851.31;5113442;28;20026;-77
2022/03/01 03:31:38;;;;;;;9.35;6.22;;;;;;;1.03;63.08;101857.44;5113236;28;20055;-78
2022/03/01 03:34:07;;;;;;;10.98;6.13;;;;;;;1.01;63.21;101858.41;5112478;28;20501;-78
2022/03/01 03:36:34;;;;;;;8.68;5.70;;;;;;;0.97;63.21;101851.44;5112448;28;20396;-78
2022/03/01 03:39:00;;;;;;;10.57;5.70;;;;;;;1.01;63.33;101859.28;5112735;28;20027;-76
2022/03/01 03:41:26;;;;;;;9.38;6.07;;;;;;;0.94;63.39;101847.13;5113125;28;20053;-77
2022/03/01 03:43:51;;;;;;;8.52;6.15;;;;;;;0.92;63.21;101846.28;5105746;28;20058;-76
2022/03/01 03:46:17;;;;;;;9.57;6.18;;;;;;;0.94;63.47;101851.53;5103286;28;20490;-76
2022/03/01 03:48:42;;;;;;;8.98;6.03;;;;;;;0.90;63.18;101849.88;5112727;28;20080;-77
2022/03/01 03:51:08;;;;;;;10.85;6.25;;;;;;;0.82;63.59;101836.84;5101986;28;20063;-70
2022/03/01 03:53:33;;;;;;;11.25;5.78;;;;;;;0.84;63.49;101844.72;5101812;28;20047;-70
2022/03/01 03:55:58;;;;;;;10.88;5.95;;;;;;;0.89;63.19;101863.97;5104292;28;20032;-70
2022/03/01 03:58:24;;;;;;;11.63;5.80;;;;;;;0.81;63.30;101843.00;5111195;28;20036;-71
2022/03/01 04:00:49;;;;;;;10.82;6.00;;;;;;;0.83;63.17;101853.53;5099064;28;20128;-71
2022/03/01 04:03:15;;;;;;;8.43;5.78;;;;;;;0.77;63.21;101838.72;5107155;28;20084;-71
2022/03/01 04:05:40;;;;;;;9.70;6.07;;;;;;;0.78;63.25;101836.94;5111662;28;20015;-71
2022/03/01 04:08:07;;;;;;;11.10;6.25;;;;;;;0.82;63.24;101847.41;5101698;28;20036;-71
2022/03/01 04:10:32;;;;;;;8.52;6.07;;;;;;;0.79;63.52;101844.84;5100412;28;20028;-70
2022/03/01 04:12:58;;;;;;;10.07;5.82;;;;;;;0.76;63.19;101836.97;5109675;28;20031;-71
2022/03/01 04:15:23;;;;;;;11.85;5.72;;;;;;;0.81;63.34;101853.56;5110803;28;20015;-71
2022/03/01 04:17:49;;;;;;;8.55;5.10;;;;;;;0.72;63.17;101824.78;5111002;28;20058;-71
2022/03/01 04:20:16;;;;;;;10.13;5.78;;;;;;;0.74;63.08;101832.66;5099443;28;20040;-70
2022/03/01 04:22:42;;;;;;;10.65;5.53;;;;;;;0.76;63.20;101839.63;5110890;28;20126;-70
2022/03/01 04:25:09;;;;;;;8.38;5.70;;;;;;;0.74;63.41;101841.44;5110465;28;20157;-70
2022/03/01 04:27:34;;;;;;;8.48;5.18;;;;;;;0.66;63.51;101827.53;5106506;28;20031;-71
2022/03/01 04:30:00;;;;;;;11.02;5.75;;;;;;;0.72;63.62;101839.72;5110375;28;20019;-70
2022/03/01 04:32:25;;;;;;;8.18;5.45;;;;;;;0.72;63.56;101835.34;5098128;28;20062;-71
2022/03/01 04:34:51;;;;;;;9.80;5.22;;;;;;;0.65;63.59;101828.47;5103707;28;20390;-71
2022/03/01 04:37:16;;;;;;;7.60;5.13;;;;;;;0.71;63.89;101849.41;5110341;28;20035;-71
2022/03/01 04:39:42;;;;;;;9.68;5.63;;;;;;;0.64;63.51;101837.25;5110813;28;20032;-71
2022/03/01 04:42:07;;;;;;;12.27;5.50;;;;;;;0.67;63.73;101833.72;5110065;28;20054;-70
2022/03/01 04:44:34;;;;;;;9.18;5.22;;;;;;;0.62;63.64;101838.22;5100520;28;20032;-71
2022/03/01 04:47:00;;;;;;;12.65;5.97;;;;;;;0.61;63.97;101845.25;5100757;28;20020;-71
2022/03/01 04:49:26;;;;;;;9.50;5.60;;;;;;;0.56;64.18;101838.34;5110065;27;20023;-71
2022/03/01 04:51:51;;;;;;;11.80;5.55;;;;;;;0.56;63.90;101835.72;5109888;28;20042;-71
2022/03/01 04:54:16;;;;;;;11.93;6.13;;;;;;;0.45;64.42;101819.25;5100410;28;20023;-71
2022/03/01 04:56:42;;;;;;;10.68;5.78;;;;;;;0.53;64.33;101836.66;5110407;28;20039;-71
2022/03/01 04:59:08;;;;;;;13.90;6.82;;;;;;;0.49;64.45;101824.44;5109918;28;20040;-72
2022/03/01 05:01:33;;;;;;;14.40;6.88;;;;;;;0.55;64.33;101842.75;5109987;28;20106;-71
2022/03/01 05:03:59;;;;;;;14.48;6.88;;;;;;;0.47;64.34;101826.22;5109933;28;20035;-71
2022/03/01 05:06:24;;;;;;;12.73;6.82;;;;;;;0.48;64.70;101833.25;5109758;28;20020;-71
2022/03/01 05:08:50;;;;;;;10.93;5.68;;;;;;;0.44;64.61;101828.06;5109885;28;20023;-71
2022/03/01 05:11:15;;;;;;;10.88;6.38;;;;;;;0.50;64.75;101836.72;5108051;28;20069;-71
2022/03/01 05:13:40;;;;;;;10.38;5.75;;;;;;;0.44;64.93;101842.13;5109462;28;20027;-71
2022/03/01 05:16:06;;;;;;;8.93;5.38;;;;;;;0.45;65.01;101835.94;5109552;28;20019;-72
2022/03/01 05:18:31;;;;;;;8.38;5.68;;;;;;;0.48;64.84;101835.88;5098857;28;20036;-72
2022/03/01 05:20:57;;;;;;;12.48;6.15;;;;;;;0.44;65.06;101830.69;5109414;28;20065;-71
2022/03/01 05:23:22;;;;;;;9.40;5.30;;;;;;;0.46;65.17;101834.19;5108478;28;20104;-71
2022/03/01 05:25:48;;;;;;;10.88;5.88;;;;;;;0.42;64.95;101824.59;5095237;28;20031;-72
2022/03/01 05:28:14;;;;;;;11.05;5.78;;;;;;;0.47;65.20;101831.50;5109808;28;20104;-72
2022/03/01 05:30:40;;;;;;;12.32;5.78;;;;;;;0.45;65.21;101825.38;5099943;28;20111;-71
2022/03/01 05:33:07;;;;;;;12.93;6.57;;;;;;;0.47;64.88;101828.00;5109367;28;20109;-79
2022/03/01 05:35:32;;;;;;;11.32;6.00;;;;;;;0.43;65.11;101826.34;5100763;28;20408;-75
2022/03/01 05:37:58;;;;;;;10.85;6.47;;;;;;;0.44;65.19;101831.56;5100686;28;20020;-76
2022/03/01 05:40:26;;;;;;;13.38;6.05;;;;;;;0.40;65.51;101831.69;5110906;28;20081;-81
2022/03/01 05:42:52;;;;;;;14.00;6.22;;;;;;;0.47;65.45;101835.91;5110591;28;20022;-78
2022/03/01 05:45:19;;;;;;;12.02;6.82;;;;;;;0.44;65.63;101830.69;5111202;28;20082;-78
2022/03/01 05:47:44;;;;;;;9.52;5.15;;;;;;;0.44;65.65;101830.69;5111075;28;20391;-77
2022/03/01 05:50:11;;;;;;;12.25;6.28;;;;;;;0.47;65.54;101839.44;5110115;28;20031;-77
2022/03/01 05:52:37;;;;;;;10.35;6.03;;;;;;;0.52;65.63;101845.50;5110025;28;20024;-77
2022/03/01 05:55:04;;;;;;;12.68;6.40;;;;;;;0.50;65.69;101838.47;5109762;27;20086;-76
2022/03/01 05:57:30;;;;;;;11.63;6.05;;;;;;;0.47;65.14;101838.53;5107203;28;20372;-77
2022/03/01 05:59:56;;;;;;;10.82;6.57;;;;;;;0.49;65.76;101842.91;5109262;28;20092;-77
2022/03/01 06:02:22;;;;;;;12.80;6.50;;;;;;;0.43;65.50;101828.97;5109769;28;20023;-77
2022/03/01 06:04:47;;;;;;;10.73;6.20;;;;;;;0.48;65.58;101835.03;5109670;28;20031;-78
2022/03/01 06:07:13;;;;;;;11.85;6.20;;;;;;;0.55;65.70;101842.75;5109572;28;20463;-77
2022/03/01 06:09:38;;;;;;;12.32;5.75;;;;;;;0.50;65.76;101838.47;5109580;28;20028;-77
2022/03/01 06:12:04;;;;;;;12.55;6.03;;;;;;;0.48;65.70;101832.38;5109510;28;20027;-78
2022/03/01 06:14:30;;;;;;;16.60;6.30;;;;;;;0.51;65.68;101835.81;5109393;28;20032;-77
2022/03/01 06:16:55;;;;;;;10.00;5.75;;;;;;;0.49;65.73;101837.63;5105804;28;20080;-77
2022/03/01 06:19:20;;;;;;;12.25;6.22;;;;;;;0.52;65.65;101840.22;5100059;28;20039;-77
2022/03/01 06:21:46;;;;;;;16.88;6.30;;;;;;;0.57;65.63;101840.06;5108569;28;20040;-77
2022/03/01 06:24:12;;;;;;;12.70;5.80;;;;;;;0.61;66.31;101837.34;5109869;28;20039;-78
2022/03/01 06:26:37;;;;;;;13.35;7.63;;;;;;;0.65;65.54;101839.03;5109021;28;20028;-78
2022/03/01 06:29:04;;;;;;;20.63;6.95;;;;;;;0.66;65.47;101840.75;5109248;28;20031;-77
2022/03/01 06:31:30;;;;;;;16.73;6.70;;;;;;;0.67;66.05;101831.91;5108821;28;20173;-77
2022/03/01 06:33:56;;;;;;;12.55;6.30;;;;;;;0.61;65.83;101821.50;5107398;28;20030;-78
2022/03/01 06:36:24;;;;;;;9.43;5.90;;;;;;;0.72;65.64;101850.28;5114037;28;20015;-77
2022/03/01 06:38:50;;;;;;;15.68;6.13;;;;;;;0.79;65.54;101844.84;5114400;28;20035;-77
2022/03/01 06:41:16;;;;;;;12.68;7.10;;;;;;;0.80;65.48;101841.28;5113865;28;20031;-77
2022/03/01 06:43:41;;;;;;;13.73;6.70;;;;;;;0.83;65.39;101854.41;5114556;28;20023;-76
2022/03/01 06:46:08;;;;;;;12.95;7.95;;;;;;;0.86;65.22;101838.50;5113399;28;20020;-77
2022/03/01 06:48:33;;;;;;;12.45;6.20;;;;;;;0.90;65.37;101842.78;5113289;28;20062;-76
2022/03/01 06:50:59;;;;;;;10.98;6.45;;;;;;;0.95;65.23;101851.50;5098713;28;20044;-76
2022/03/01 06:53:24;;;;;;;15.25;6.97;;;;;;;1.01;65.24;101854.00;5113423;28;20544;-76
2022/03/01 06:55:50;;;;;;;15.95;6.50;;;;;;;1.00;65.10;101841.66;5113712;28;20532;-76
2022/03/01 06:58:16;;;;;;;14.38;6.40;;;;;;;1.18;64.95;101862.34;5113587;28;20114;-76
2022/03/01 07:00:42;;;;;;;16.25;6.78;;;;;;;1.14;64.84;101836.06;5114007;28;20027;-77
2022/03/01 07:03:07;;;;;;;13.60;5.70;;;;;;;1.27;64.39;101842.75;5113833;28;20028;-77
2022/03/01 07:05:33;;;;;;;9.98;5.28;;;;;;;1.39;64.40;101845.94;5113227;28;20536;-77
2022/03/01 07:07:58;;;;;;;14.93;6.68;;;;;;;1.45;64.20;101845.78;5103821;28;20019;-78
2022/03/01 07:10:24;;;;;;;13.70;6.13;;;;;;;1.49;64.09;101836.84;5113126;28;20031;-77
2022/03/01 07:12:50;;;;;;;14.88;5.63;;;;;;;1.67;63.46;101857.53;5098602;28;20436;-77
2022/03/01 07:15:16;;;;;;;12.10;6.15;;;;;;;1.74;63.16;101845.88;5112935;28;20027;-77
2022/03/01 07:17:41;;;;;;;10.55;5.63;;;;;;;1.77;62.71;101842.25;5113178;28;20035;-76
2022/03/01 07:20:07;;;;;;;13.95;6.28;;;;;;;1.81;62.60;101822.78;5113372;28;20035;-76
2022/03/01 07:22:33;;;;;;;17.77;6.10;;;;;;;2.01;62.15;101833.66;5113209;28;20047;-76
2022/03/01 07:24:59;;;;;;;9.60;5.65;;;;;;;2.06;61.81;101824.66;5112401;28;20098;-76
2022/03/01 07:27:24;;;;;;;10.57;5.43;;;;;;;2.25;60.63;101847.03;5106241;28;20138;-76
2022/03/01 07:29:50;;;;;;;15.00;6.07;;;;;;;2.36;60.30;101839.63;5112860;28;20038;-76
2022/03/01 07:32:16;;;;;;;13.90;5.53;;;;;;;2.52;60.16;101839.19;5112324;28;20413;-76
2022/03/01 07:34:42;;;;;;;14.40;6.20;;;;;;;2.68;59.54;101836.03;5110841;27;21127;-75
2022/03/01 07:37:08;;;;;;;12.45;6.30;;;;;;;2.85;59.44;101827.53;5110023;28;20403;-75
2022/03/01 07:39:36;;;;;;;9.93;5.78;;;;;;;3.12;58.94;101826.59;5109976;28;20027;-75
2022/03/01 07:42:03;;;;;;;19.02;5.75;;;;;;;3.37;58.20;101828.41;5112375;27;20027;-76
2022/03/01 07:44:28;;;;;;;14.30;5.68;;;;;;;3.83;56.54;101822.31;5099507;28;20023;-76
2022/03/01 07:46:54;;;;;;;15.65;6.10;;;;;;;4.29;55.92;101817.91;5112018;28;20493;-76
2022/03/01 07:49:19;;;;;;;11.07;5.63;;;;;;;4.80;52.96;101830.94;5109529;28;20041;-77
2022/03/01 07:51:45;;;;;;;12.80;4.75;;;;;;;5.30;51.33;101820.88;5112157;28;20023;-77
2022/03/01 07:54:11;;;;;;;11.07;5.40;;;;;;;5.86;49.85;101809.53;5111822;28;20077;-77
2022/03/01 07:56:36;;;;;;;12.07;4.78;;;;;;;6.48;48.19;101819.97;5111865;27;20069;-77
2022/03/01 07:59:02;;;;;;;10.38;5.03;;;;;;;7.11;46.85;101818.63;5111750;28;20028;-77
2022/03/01 08:01:28;;;;;;;15.50;5.20;;;;;;;7.63;45.22;101817.72;5111574;28;20036;-78
2022/03/01 08:03:53;;;;;;;8.35;5.07;;;;;;;8.21;44.30;101809.22;5111949;28;20019;-78
2022/03/01 08:06:19;;;;;;;8.95;4.70;;;;;;;8.68;42.60;101810.13;5112154;28;20019;-81
2022/03/01 08:08:45;;;;;;;10.90;5.28;;;;;;;9.40;41.76;101797.00;5096725;28;20038;-77
2022/03/01 08:11:10;;;;;;;10.23;5.18;;;;;;;9.76;40.50;101799.28;5109341;28;20028;-78
2022/03/01 08:13:37;;;;;;;8.45;4.88;;;;;;;10.16;39.77;101799.44;5111645;28;20054;-78
2022/03/01 08:16:03;;;;;;;9.63;4.38;;;;;;;10.79;38.85;101797.13;5111423;28;20106;-77
2022/03/01 08:18:29;;;;;;;8.82;4.55;;;;;;;11.23;37.44;101792.38;5111650;28;20084;-78
2022/03/01 08:20:54;;;;;;;5.63;4.30;;;;;;;11.79;36.28;101796.59;5111357;28;20402;-77
2022/03/01 08:23:20;;;;;;;6.82;4.53;;;;;;;11.74;36.49;101791.56;5111440;28;20067;-78
2022/03/01 08:25:46;;;;;;;8.35;4.22;;;;;;;12.07;35.46;101797.25;5111452;28;20023;-77
2022/03/01 08:28:13;;;;;;;8.25;4.00;;;;;;;11.55;36.22;101791.91;5111636;28;20395;-77
2022/03/01 08:30:38;;;;;;;7.07;4.20;;;;;;;10.76;37.13;101797.34;5111686;28;20115;-78
2022/03/01 08:33:04;;;;;;;9.35;4.35;;;;;;;10.03;38.88;101786.88;5111923;28;20436;-77
2022/03/01 08:35:32;;;;;;;5.82;3.95;;;;;;;9.31;39.38;101794.88;5111649;28;20051;-77
2022/03/01 08:38:02;;;;;;;5.07;3.30;;;;;;;8.47;40.72;101797.13;5111281;28;20028;-77
2022/03/01 08:40:32;;;;;;;8.07;4.00;;;;;;;7.95;42.34;101793.72;5096385;28;20072;-77
2022/03/01 08:42:57;;;;;;;8.88;4.10;;;;;;;7.58;43.02;101782.41;5101557;28;20024;-77
2022/03/01 08:45:23;;;;;;;11.77;4.43;;;;;;;7.30;44.45;101790.97;5101983;28;20038;-77
2022/03/01 08:47:50;;;;;;;9.13;5.00;;;;;;;7.05;44.59;101787.81;5101658;28;20020;-77
2022/03/01 08:50:16;;;;;;;10.00;3.83;;;;;;;6.75;45.35;101798.16;5101880;28;20120;-77
2022/03/01 08:52:41;;;;;;;7.68;3.60;;;;;;;6.48;45.35;101769.34;5109971;28;20224;-69
2022/03/01 08:55:08;;;;;;;5.10;3.50;;;;;;;6.48;45.61;101796.00;5109666;28;20478;-69
2022/03/01 08:57:34;;;;;;;6.10;3.70;;;;;;;6.42;46.40;101793.63;5108835;28;20125;-69
2022/03/01 08:59:59;;;;;;;8.20;4.07;;;;;;;6.30;46.81;101789.72;5102964;28;20537;-70
2022/03/01 09:02:24;;;;;;;7.70;3.75;;;;;;;6.34;46.54;101788.63;5095540;28;20047;-70
2022/03/01 09:04:50;;;;;;;7.43;3.60;;;;;;;6.34;46.05;101782.44;5109484;27;20039;-70
2022/03/01 09:07:16;;;;;;;6.85;4.15;;;;;;;6.35;45.74;101785.03;5109650;28;20032;-69
2022/03/01 09:09:42;;;;;;;6.55;3.25;;;;;;;6.40;46.06;101791.03;5109604;28;20451;-69
2022/03/01 09:12:07;;;;;;;7.50;3.22;;;;;;;6.39;46.10;101764.44;5092244;28;20023;-70
2022/03/01 09:14:33;;;;;;;11.75;3.88;;;;;;;6.57;46.12;101777.75;5109556;28;20359;-69
2022/03/01 09:16:58;;;;;;;11.50;3.72;;;;;;;6.77;45.31;101769.63;5100063;28;20220;-70
2022/03/01 09:19:24;;;;;;;7.15;4.03;;;;;;;6.98;43.33;101768.59;5107102;28;20042;-70
2022/03/01 09:21:49;;;;;;;9.98;3.60;;;;;;;7.29;43.74;101759.91;5109548;28;20043;-77
2022/03/01 09:24:14;;;;;;;10.88;3.40;;;;;;;7.84;42.48;101765.88;5110532;28;20040;-78
2022/03/01 09:26:40;;;;;;;8.88;3.50;;;;;;;9.37;40.12;101757.00;5110299;28;20031;-77
2022/03/01 09:29:06;;;;;;;7.65;3.35;;;;;;;11.54;36.17;101752.56;5110350;28;20020;-77
2022/03/01 09:31:32;;;;;;;10.55;3.42;;;;;;;13.40;32.36;101754.06;5111080;28;20039;-78
2022/03/01 09:33:57;;;;;;;6.13;3.13;;;;;;;15.06;30.15;101730.59;5110330;28;20032;-78
2022/03/01 09:36:23;;;;;;;7.03;3.90;;;;;;;16.59;27.86;101728.81;5110674;28;20061;-78
2022/03/01 09:38:49;;;;;;;7.97;3.65;;;;;;;17.79;26.34;101734.56;5111262;28;20031;-79
2022/03/01 09:41:15;;;;;;;8.65;3.55;;;;;;;18.70;24.77;101717.47;5111002;28;20530;-78
2022/03/01 09:43:42;;;;;;;12.75;3.67;;;;;;;19.48;23.80;101706.69;5110649;27;20425;-78
2022/03/01 09:46:09;;;;;;;11.27;3.42;;;;;;;20.14;23.16;101705.09;5110546;28;20047;-80
2022/03/01 09:48:36;;;;;;;6.68;3.38;;;;;;;20.42;22.44;101697.56;5098310;28;20019;-79
2022/03/01 09:51:04;;;;;;;7.20;3.72;;;;;;;20.85;21.92;101691.88;5110796;28;20106;-79
2022/03/01 09:53:30;;;;;;;8.10;3.70;;;;;;;21.61;21.13;101682.41;5110584;28;20736;-79
2022/03/01 09:55:56;;;;;;;5.95;3.53;;;;;;;21.60;20.87;101694.38;5110647;28;20031;-79
2022/03/01 09:58:22;;;;;;;8.77;3.60;;;;;;;22.05;20.66;101687.28;5110151;28;20463;-79
2022/03/01 10:00:48;;;;;;;4.75;3.42;;;;;;;21.84;20.39;101677.97;5098565;28;20493;-79
2022/03/01 10:03:15;;;;;;;5.13;3.20;;;;;;;22.35;20.03;101669.25;5111138;28;20104;-79
2022/03/01 10:05:42;;;;;;;5.90;3.22;;;;;;;22.36;19.63;101657.28;5111095;28;20030;-79
2022/03/01 10:08:20;;;;;;;5.18;3.20;;;;;;;22.44;19.62;101665.41;5110649;28;20034;-79
2022/03/01 10:10:53;;;;;;;4.80;3.25;;;;;;;22.94;19.18;101663.09;5100854;28;20024;-79
2022/03/01 10:13:28;;;;;;;6.38;3.38;;;;;;;22.97;18.85;101650.94;5095613;28;20028;-79
2022/03/01 10:16:17;;;;;;;6.10;3.28;;;;;;;22.73;18.90;101651.13;5100555;28;20080;-79
2022/03/01 10:18:52;;;;;;;5.47;3.10;;;;;;;23.37;18.48;101651.47;5103795;28;20478;-79
2022/03/01 10:21:19;;;;;;;8.70;3.60;;;;;;;23.46;18.49;101644.03;5094193;28;20058;-79
2022/03/01 10:23:47;;;;;;;5.60;3.25;;;;;;;23.71;18.00;101640.00;5109826;28;20043;-78
2022/03/01 10:26:14;;;;;;;4.95;2.85;;;;;;;23.68;17.73;101621.22;5110080;28;20506;-79
2022/03/01 10:28:41;;;;;;;9.05;3.35;;;;;;;23.45;17.66;101624.03;5103947;28;20088;-79
2022/03/01 10:31:10;;;;;;;8.68;3.50;;;;;;;23.45;17.74;101598.50;5110473;28;20080;-79
2022/03/01 10:33:37;;;;;;;7.78;3.80;;;;;;;23.64;18.10;101612.50;5098379;28;20088;-78
2022/03/01 10:36:03;;;;;;;6.90;4.47;;;;;;;23.57;17.28;101592.38;5110197;28;20034;-79
2022/03/01 10:38:28;;;;;;;6.10;3.97;;;;;;;23.24;17.76;101606.59;5110799;28;20027;-78
2022/03/01 10:40:59;;;;;;;5.32;3.22;;;;;;;23.22;17.42;101592.22;5100828;28;20024;-78
2022/03/01 10:43:26;;;;;;;6.85;3.50;;;;;;;23.06;17.49;101604.16;5099577;28;20107;-78
2022/03/01 10:45:51;;;;;;;5.28;3.15;;;;;;;22.74;17.88;101598.97;5110358;28;20467;-78
2022/03/01 10:48:28;;;;;;;7.82;3.40;;;;;;;22.49;17.93;101594.69;5111314;28;20031;-79
2022/03/01 10:51:05;;;;;;;5.22;3.20;;;;;;;21.79;18.47;101590.19;5105383;28;20024;-78
2022/03/01 10:53:39;;;;;;;4.70;3.08;;;;;;;20.41;19.06;101600.47;5109888;28;20054;-78
2022/03/01 10:56:11;;;;;;;6.22;3.03;;;;;;;19.35;20.03;101603.69;5098576;28;20016;-78
2022/03/01 10:58:38;;;;;;;6.93;3.83;;;;;;;18.08;21.54;101595.16;5107106;28;20027;-78
2022/03/01 11:01:04;;;;;;;8.38;4.20;;;;;;;17.16;22.88;101598.75;5100646;28;20035;-78
2022/03/01 11:03:30;;;;;;;5.03;3.30;;;;;;;15.66;24.16;101595.56;5112444;28;20024;-79
2022/03/01 11:05:57;;;;;;;7.50;3.40;;;;;;;14.79;25.12;101595.16;5111059;28;20024;-79
2022/03/01 11:08:30;;;;;;;9.95;6.47;;;;;;;13.84;26.44;101593.31;5111684;28;20080;-79
2022/03/01 11:10:58;;;;;;;7.18;4.30;;;;;;;13.13;27.21;101605.28;5100903;28;20029;-78
2022/03/01 11:13:27;;;;;;;7.40;4.55;;;;;;;12.32;27.70;101597.28;5097496;28;20507;-78
2022/03/01 11:16:18;;;;;;;7.15;3.78;;;;;;;11.70;29.86;101596.50;5108653;28;20035;-79
2022/03/01 11:18:50;;;;;;;7.22;4.13;;;;;;;11.10;29.71;101603.53;5104496;28;20030;-79
2022/03/01 11:21:19;;;;;;;8.63;4.25;;;;;;;10.75;30.34;101592.53;5114706;28;20501;-78
2022/03/01 11:23:45;;;;;;;5.47;3.47;;;;;;;10.40;30.15;101579.78;5114975;28;20080;-79